createdAt,value
2023-02-08T00:00:53.555Z,30.9
2023-02-08T00:05:55.319Z,30.3
2023-02-08T00:10:56.033Z,32.2
2023-02-08T00:15:56.619Z,31.5
2023-02-08T00:20:57.177Z,33.7
2023-02-08T00:26:00.703Z,30.9
2023-02-08T00:31:02.935Z,31.8
2023-02-08T00:36:05.945Z,30.8
2023-02-08T00:41:10.277Z,30.2
2023-02-08T00:46:10.798Z,30.1
2023-02-08T00:51:12.325Z,29.4
2023-02-08T00:56:14.420Z,29.6
2023-02-08T01:01:17.533Z,29.2
2023-02-08T01:06:18.085Z,29.3
2023-02-08T01:11:25.814Z,29.6
2023-02-08T01:16:28.545Z,29.2
2023-02-08T01:21:29.098Z,28.4
2023-02-08T01:26:32.451Z,28.3
2023-02-08T01:31:35.591Z,27.2
2023-02-08T01:36:36.018Z,29.8
2023-02-08T01:41:39.059Z,29.1
2023-02-08T01:46:40.901Z,30.5
2023-02-08T01:51:41.356Z,31.6
2023-02-08T01:56:43.851Z,31.2
2023-02-08T02:01:59.377Z,29.7
2023-02-08T02:06:51.080Z,29.4
2023-02-08T02:11:54.112Z,27.7
2023-02-08T02:17:07.464Z,27.8
2023-02-08T02:21:59.369Z,28.2
2023-02-08T02:27:03.874Z,26.4
2023-02-08T02:32:04.522Z,26.1
2023-02-08T02:37:06.165Z,25.9
2023-02-08T02:42:07.921Z,26
2023-02-08T02:47:08.390Z,28.1
2023-02-08T02:52:08.882Z,26.2
2023-02-08T02:57:11.858Z,26.5
2023-02-08T03:02:14.919Z,26.9
2023-02-08T03:07:18.151Z,26
2023-02-08T03:12:20.980Z,24.9
2023-02-08T03:17:21.607Z,25.2
2023-02-08T03:22:24.869Z,24.8
2023-02-08T03:27:25.432Z,23.9
2023-02-08T03:32:25.918Z,23
2023-02-08T03:37:26.394Z,23.5
2023-02-08T03:42:28.631Z,21.9
2023-02-08T03:47:29.776Z,22.4
2023-02-08T03:52:30.339Z,20.6
2023-02-08T03:57:39.495Z,21
2023-02-08T04:02:40.485Z,20
2023-02-08T04:07:40.986Z,20
2023-02-08T04:12:43.809Z,18.3
2023-02-08T04:17:44.425Z,17.8
2023-02-08T04:22:46.983Z,17.3
2023-02-08T04:27:47.561Z,16.9
2023-02-08T04:38:53.812Z,19
2023-02-08T04:43:54.447Z,16.3
2023-02-08T04:48:57.360Z,15.7
2023-02-08T04:54:00.679Z,16.2
2023-02-08T04:59:01.190Z,20.3
2023-02-08T05:04:04.357Z,18.6
2023-02-08T05:09:04.880Z,24.8
2023-02-08T05:14:05.623Z,20.2
2023-02-08T05:19:08.208Z,20
2023-02-08T05:24:08.829Z,20.8
2023-02-08T05:29:12.928Z,20.2
2023-02-08T05:34:16.186Z,20.7
2023-02-08T05:39:19.646Z,20.9
2023-02-08T05:44:20.591Z,19.1
2023-02-08T05:49:23.579Z,17.9
2023-02-08T05:54:24.259Z,15
2023-02-08T05:59:25.032Z,14.4
2023-02-08T06:04:30.709Z,15.3
2023-02-08T06:09:31.169Z,17.3
2023-02-08T06:14:33.746Z,17.4
2023-02-08T06:19:36.432Z,18.4
2023-02-08T06:24:37.243Z,18.3
2023-02-08T06:29:38.331Z,17.3
2023-02-08T06:34:41.460Z,17.1
2023-02-08T06:39:43.368Z,15
2023-02-08T06:44:59.362Z,17.1
2023-02-08T06:49:51.778Z,20.5
2023-02-08T06:54:56.397Z,17
2023-02-08T06:59:57.139Z,17.1
2023-02-08T07:04:57.578Z,17.2
2023-02-08T07:10:00.439Z,16.9
2023-02-08T07:15:01.130Z,16.5
2023-02-08T07:20:01.590Z,17.3
2023-02-08T07:25:10.909Z,16.6
2023-02-08T07:30:17.995Z,16.2
2023-02-08T07:35:18.647Z,14.4
2023-02-08T07:40:19.101Z,14.8
2023-02-08T07:45:19.628Z,31
2023-02-08T07:50:21.411Z,16.4
2023-02-08T07:55:24.447Z,15.4
2023-02-08T08:00:27.273Z,15.1
2023-02-08T08:05:30.322Z,15.4
2023-02-08T08:10:38.408Z,15.7
2023-02-08T08:15:41.635Z,15.3
2023-02-08T08:20:44.985Z,16.1
2023-02-08T08:25:47.032Z,15.9
2023-02-08T08:30:47.652Z,15.2
2023-02-08T08:35:48.138Z,16.5
2023-02-08T08:40:48.602Z,16.3
2023-02-08T08:45:52.760Z,16.1
2023-02-08T08:50:57.710Z,16.1
2023-02-08T08:55:59.070Z,16.5
2023-02-08T09:01:02.670Z,15.9
2023-02-08T09:06:03.248Z,15.9
2023-02-08T09:11:05.822Z,15.8
2023-02-08T09:16:06.653Z,63.7
2023-02-08T09:21:07.284Z,16.8
2023-02-08T09:26:09.304Z,16
2023-02-08T09:31:13.236Z,15.7
2023-02-08T09:36:13.883Z,15.4
2023-02-08T09:41:15.561Z,15.4
2023-02-08T09:46:16.435Z,16
2023-02-08T09:51:19.959Z,15.5
2023-02-08T09:56:20.496Z,15.7
2023-02-08T10:01:21.678Z,15.1
2023-02-08T10:06:22.412Z,14.9
2023-02-08T10:11:22.944Z,15.3
2023-02-08T10:16:23.669Z,42.1
2023-02-08T10:21:24.301Z,15
2023-02-08T10:26:25.408Z,13.8
2023-02-08T10:32:02.188Z,14.3
2023-02-08T10:37:05.611Z,13.8
2023-02-08T10:42:08.005Z,14.2
2023-02-08T10:47:11.140Z,13.2
2023-02-08T10:52:16.680Z,13.1
2023-02-08T10:57:18.135Z,13.3
2023-02-08T11:02:20.508Z,13.8
2023-02-08T11:07:20.900Z,12.8
2023-02-08T11:12:33.020Z,14
2023-02-08T11:17:29.775Z,12.9
2023-02-08T11:22:35.510Z,14.3
2023-02-08T11:27:39.533Z,13
2023-02-08T11:32:42.152Z,13.4
2023-02-08T11:37:46.253Z,13.3
2023-02-08T11:42:48.863Z,12.9
2023-02-08T11:47:55.575Z,13.1
2023-02-08T11:53:00.101Z,12.6
2023-02-08T11:58:02.492Z,12.8
2023-02-08T12:03:05.476Z,11.8
2023-02-08T12:08:06.864Z,10.4
2023-02-08T12:13:09.871Z,12.2
2023-02-08T12:18:14.110Z,12
2023-02-08T12:23:22.051Z,21.1
2023-02-08T12:28:22.522Z,11.3
2023-02-08T12:33:32.945Z,11.9
2023-02-08T12:38:26.656Z,12.8
2023-02-08T12:43:27.109Z,12.1
2023-02-08T12:48:27.570Z,11.4
2023-02-08T12:53:29.517Z,12
2023-02-08T12:58:29.969Z,10.4
2023-02-08T13:03:32.798Z,10.5
2023-02-08T13:08:33.226Z,10.6
2023-02-08T13:13:33.654Z,10.5
2023-02-08T13:18:34.562Z,11.1
2023-02-08T13:23:51.915Z,12.4
2023-02-08T13:28:42.873Z,12.5
2023-02-08T13:34:01.828Z,12.5
2023-02-08T13:38:45.475Z,11.7
2023-02-08T13:43:46.038Z,10.9
2023-02-08T13:48:46.876Z,11.2
2023-02-08T13:58:48.008Z,11.2
2023-02-08T14:03:48.491Z,12.1
2023-02-08T14:08:49.020Z,12.4
2023-02-08T14:13:49.638Z,11.3
2023-02-08T14:18:50.346Z,11.3
2023-02-08T14:23:50.712Z,11.7
2023-02-08T14:28:51.086Z,12.1
2023-02-08T14:33:51.537Z,11.3
2023-02-08T14:38:51.956Z,10.8
2023-02-08T14:43:54.829Z,11
2023-02-08T14:48:55.494Z,10.7
2023-02-08T14:53:56.105Z,10.8
2023-02-08T14:58:56.696Z,10.8
2023-02-08T15:03:59.313Z,12.4
2023-02-08T15:09:01.251Z,13.1
2023-02-08T15:14:02.418Z,12.9
2023-02-08T15:19:03.479Z,11.8
2023-02-08T15:24:06.702Z,13.3
2023-02-08T15:29:07.199Z,12.6
2023-02-08T15:34:07.907Z,13.7
2023-02-08T15:39:08.810Z,12.7
2023-02-08T15:44:10.297Z,13.1
2023-02-08T15:49:11.226Z,12.7
2023-02-08T15:54:11.835Z,13.1
2023-02-08T15:59:12.497Z,15.4
2023-02-08T16:04:13.234Z,21.2
2023-02-08T16:09:14.012Z,23.4
2023-02-08T16:14:14.565Z,17.9
2023-02-08T16:19:15.226Z,17.2
2023-02-08T16:24:15.828Z,16.1
2023-02-08T16:29:16.545Z,16.3
2023-02-08T16:34:17.740Z,16.2
2023-02-08T16:39:18.409Z,16.1
2023-02-08T16:44:19.314Z,15.2
2023-02-08T16:49:20.201Z,36.3
2023-02-08T16:54:20.768Z,15.2
2023-02-08T16:59:21.590Z,14.4
2023-02-08T17:04:29.937Z,15.9
2023-02-08T17:09:31.521Z,16.7
2023-02-08T17:14:32.355Z,17
2023-02-08T17:19:33.930Z,16.5
2023-02-08T17:24:34.593Z,15.3
2023-02-08T17:29:35.225Z,17.1
2023-02-08T17:34:36.538Z,19.1
2023-02-08T17:39:37.660Z,19.8
2023-02-08T17:44:38.253Z,20.1
2023-02-08T17:49:38.848Z,18.4
2023-02-08T17:54:39.319Z,18.4
2023-02-08T17:59:40.389Z,18.6
2023-02-08T18:04:40.948Z,19.5
2023-02-08T18:09:41.409Z,45.5
2023-02-08T18:14:41.830Z,38.2
2023-02-08T18:19:42.521Z,31.5
2023-02-08T18:24:43.026Z,27.4
2023-02-08T18:29:43.485Z,26.1
2023-02-08T18:34:43.949Z,23.5
2023-02-08T18:39:44.717Z,20.7
2023-02-08T18:44:46.260Z,21
2023-02-08T18:49:46.971Z,21.6
2023-02-08T18:54:47.460Z,24.1
2023-02-08T18:59:48.104Z,25.2
2023-02-08T19:04:48.575Z,26
2023-02-08T19:09:48.960Z,26.3
2023-02-08T19:14:49.608Z,31.3
2023-02-08T19:19:50.190Z,28.6
2023-02-08T19:24:50.713Z,28.3
2023-02-08T19:29:51.149Z,24.6
2023-02-08T19:34:51.626Z,24.2
2023-02-08T19:39:52.140Z,27
2023-02-08T19:44:52.665Z,29.5
2023-02-08T19:49:53.083Z,34.2
2023-02-08T19:54:53.561Z,30.4
2023-02-08T19:59:53.996Z,31.3
2023-02-08T20:04:54.450Z,30.5
2023-02-08T20:09:55.127Z,31.2
2023-02-08T20:14:55.552Z,27.8
2023-02-08T20:19:56.009Z,28.4
2023-02-08T20:24:56.360Z,34.4
2023-02-08T20:29:56.742Z,32.5
2023-02-08T20:35:00.739Z,27.9
2023-02-08T20:40:01.474Z,29.2
2023-02-08T20:45:02.097Z,31
2023-02-08T20:50:18.569Z,35.4
2023-02-08T20:55:09.891Z,35.6
2023-02-08T21:00:10.276Z,56.8
2023-02-08T21:05:10.667Z,27.3
2023-02-08T21:10:11.432Z,27.1
2023-02-08T21:15:12.014Z,29.3
2023-02-08T21:20:13.241Z,29.9
2023-02-08T21:25:13.642Z,31.1
2023-02-08T21:30:14.199Z,30
2023-02-08T21:35:14.600Z,26
2023-02-08T21:40:15.049Z,26.4
2023-02-08T21:45:17.970Z,27.8
2023-02-08T21:50:19.707Z,29.9
2023-02-08T21:55:20.245Z,31.5
2023-02-08T22:00:20.725Z,34.7
2023-02-08T22:05:23.132Z,31.9
2023-02-08T22:10:23.508Z,31.4
2023-02-08T22:15:24.135Z,34.5
2023-02-08T22:20:24.843Z,39.7
2023-02-08T22:25:25.651Z,35.6
2023-02-08T22:30:26.670Z,35.2
2023-02-08T22:35:27.285Z,34.3
2023-02-08T22:40:27.828Z,33.8
2023-02-08T22:45:28.399Z,32.6
2023-02-08T22:50:28.754Z,35.4
2023-02-08T22:55:29.210Z,37.2
2023-02-08T23:00:29.729Z,36.6
2023-02-08T23:05:30.140Z,36.2
2023-02-08T23:10:30.583Z,34.2
2023-02-08T23:15:31.142Z,31.4
2023-02-08T23:20:31.668Z,30.6
2023-02-08T23:25:32.068Z,30.8
2023-02-08T23:30:32.643Z,29.4
2023-02-08T23:35:33.063Z,28.6
2023-02-08T23:40:33.633Z,26.1
2023-02-08T23:45:34.437Z,25
2023-02-08T23:50:35.033Z,25
2023-02-08T23:55:35.765Z,25.1
